sensor_id;sensor_type;location;lat;lon;timestamp;P1;durP1;ratioP1;P2;durP2;ratioP2
7575;SDS011;3829;50.798;4.358;2022-12-29T00:00:04;3.00;;;1.40;;
7575;SDS011;3829;50.798;4.358;2022-12-29T00:02:31;4.37;;;1.53;;
7575;SDS011;3829;50.798;4.358;2022-12-29T00:04:56;2.40;;;1.60;;
7575;SDS011;3829;50.798;4.358;2022-12-29T00:07:22;1.97;;;1.30;;
7575;SDS011;3829;50.798;4.358;2022-12-29T00:09:48;4.27;;;1.50;;
7575;SDS011;3829;50.798;4.358;2022-12-29T00:12:13;2.30;;;1.20;;
7575;SDS011;3829;50.798;4.358;2022-12-29T00:14:39;1.77;;;1.30;;
7575;SDS011;3829;50.798;4.358;2022-12-29T00:17:23;3.33;;;1.77;;
7575;SDS011;3829;50.798;4.358;2022-12-29T00:19:49;2.97;;;1.10;;
7575;SDS011;3829;50.798;4.358;2022-12-29T00:22:33;2.37;;;1.10;;
7575;SDS011;3829;50.798;4.358;2022-12-29T00:25:17;4.03;;;1.43;;
7575;SDS011;3829;50.798;4.358;2022-12-29T00:28:01;3.57;;;1.13;;
7575;SDS011;3829;50.798;4.358;2022-12-29T00:30:45;4.70;;;1.27;;
7575;SDS011;3829;50.798;4.358;2022-12-29T00:33:30;2.47;;;0.63;;
7575;SDS011;3829;50.798;4.358;2022-12-29T00:36:16;1.67;;;1.00;;
7575;SDS011;3829;50.798;4.358;2022-12-29T00:39:18;2.97;;;1.00;;
7575;SDS011;3829;50.798;4.358;2022-12-29T00:41:56;1.67;;;0.93;;
7575;SDS011;3829;50.798;4.358;2022-12-29T00:44:47;4.13;;;1.40;;
7575;SDS011;3829;50.798;4.358;2022-12-29T00:47:13;5.23;;;1.33;;
7575;SDS011;3829;50.798;4.358;2022-12-29T00:49:38;4.03;;;1.53;;
7575;SDS011;3829;50.798;4.358;2022-12-29T00:52:05;2.70;;;1.03;;
7575;SDS011;3829;50.798;4.358;2022-12-29T00:54:33;3.67;;;1.27;;
7575;SDS011;3829;50.798;4.358;2022-12-29T00:57:00;5.93;;;1.10;;
7575;SDS011;3829;50.798;4.358;2022-12-29T00:59:27;3.13;;;1.10;;
7575;SDS011;3829;50.798;4.358;2022-12-29T01:01:53;1.67;;;0.87;;
7575;SDS011;3829;50.798;4.358;2022-12-29T01:04:20;5.80;;;2.53;;
7575;SDS011;3829;50.798;4.358;2022-12-29T01:06:47;5.10;;;1.83;;
7575;SDS011;3829;50.798;4.358;2022-12-29T01:09:13;5.33;;;1.07;;
7575;SDS011;3829;50.798;4.358;2022-12-29T01:11:57;0.70;;;0.70;;
7575;SDS011;3829;50.798;4.358;2022-12-29T01:14:23;3.37;;;1.00;;
7575;SDS011;3829;50.798;4.358;2022-12-29T01:16:50;3.77;;;1.30;;
7575;SDS011;3829;50.798;4.358;2022-12-29T01:19:16;4.67;;;1.43;;
7575;SDS011;3829;50.798;4.358;2022-12-29T01:21:42;4.63;;;1.33;;
7575;SDS011;3829;50.798;4.358;2022-12-29T01:24:07;5.83;;;1.37;;
7575;SDS011;3829;50.798;4.358;2022-12-29T01:26:33;2.83;;;1.30;;
7575;SDS011;3829;50.798;4.358;2022-12-29T01:28:59;6.93;;;1.57;;
7575;SDS011;3829;50.798;4.358;2022-12-29T01:31:25;7.43;;;1.90;;
7575;SDS011;3829;50.798;4.358;2022-12-29T01:33:50;4.57;;;1.50;;
7575;SDS011;3829;50.798;4.358;2022-12-29T01:36:16;3.70;;;1.27;;
7575;SDS011;3829;50.798;4.358;2022-12-29T01:38:43;4.37;;;1.40;;
7575;SDS011;3829;50.798;4.358;2022-12-29T01:41:10;2.57;;;1.50;;
7575;SDS011;3829;50.798;4.358;2022-12-29T01:43:48;3.33;;;1.10;;
7575;SDS011;3829;50.798;4.358;2022-12-29T01:46:26;4.20;;;1.53;;
7575;SDS011;3829;50.798;4.358;2022-12-29T01:51:48;2.00;;;1.00;;
7575;SDS011;3829;50.798;4.358;2022-12-29T01:54:22;4.47;;;1.40;;
7575;SDS011;3829;50.798;4.358;2022-12-29T01:56:51;4.27;;;1.30;;
7575;SDS011;3829;50.798;4.358;2022-12-29T01:59:19;2.97;;;1.00;;
7575;SDS011;3829;50.798;4.358;2022-12-29T02:01:49;2.50;;;0.90;;
7575;SDS011;3829;50.798;4.358;2022-12-29T02:04:15;3.07;;;1.10;;
7575;SDS011;3829;50.798;4.358;2022-12-29T02:06:50;4.33;;;0.73;;
7575;SDS011;3829;50.798;4.358;2022-12-29T02:09:26;3.57;;;0.90;;
7575;SDS011;3829;50.798;4.358;2022-12-29T02:11:51;1.63;;;0.63;;
7575;SDS011;3829;50.798;4.358;2022-12-29T02:14:17;2.40;;;0.70;;
7575;SDS011;3829;50.798;4.358;2022-12-29T02:21:52;1.87;;;0.70;;
7575;SDS011;3829;50.798;4.358;2022-12-29T02:27:26;2.40;;;0.90;;
7575;SDS011;3829;50.798;4.358;2022-12-29T02:30:25;1.50;;;0.80;;
7575;SDS011;3829;50.798;4.358;2022-12-29T02:32:58;8.23;;;1.00;;
7575;SDS011;3829;50.798;4.358;2022-12-29T02:35:46;3.63;;;0.97;;
7575;SDS011;3829;50.798;4.358;2022-12-29T02:41:31;1.33;;;0.60;;
7575;SDS011;3829;50.798;4.358;2022-12-29T02:47:05;3.50;;;0.80;;
7575;SDS011;3829;50.798;4.358;2022-12-29T02:49:48;3.70;;;0.70;;
7575;SDS011;3829;50.798;4.358;2022-12-29T02:52:30;1.27;;;0.57;;
7575;SDS011;3829;50.798;4.358;2022-12-29T02:55:17;1.67;;;0.67;;
7575;SDS011;3829;50.798;4.358;2022-12-29T02:57:43;0.87;;;0.60;;
7575;SDS011;3829;50.798;4.358;2022-12-29T03:00:13;3.33;;;0.70;;
7575;SDS011;3829;50.798;4.358;2022-12-29T03:02:47;2.93;;;0.83;;
7575;SDS011;3829;50.798;4.358;2022-12-29T03:05:39;3.77;;;1.07;;
7575;SDS011;3829;50.798;4.358;2022-12-29T03:08:23;4.30;;;1.00;;
7575;SDS011;3829;50.798;4.358;2022-12-29T03:11:09;3.97;;;1.07;;
7575;SDS011;3829;50.798;4.358;2022-12-29T03:14:04;3.60;;;1.00;;
7575;SDS011;3829;50.798;4.358;2022-12-29T03:16:53;2.40;;;0.80;;
7575;SDS011;3829;50.798;4.358;2022-12-29T03:19:38;2.70;;;1.07;;
7575;SDS011;3829;50.798;4.358;2022-12-29T03:22:10;2.83;;;0.80;;
7575;SDS011;3829;50.798;4.358;2022-12-29T03:24:52;1.90;;;0.80;;
7575;SDS011;3829;50.798;4.358;2022-12-29T03:27:26;2.17;;;0.80;;
7575;SDS011;3829;50.798;4.358;2022-12-29T03:30:00;3.37;;;0.93;;
7575;SDS011;3829;50.798;4.358;2022-12-29T03:32:33;3.03;;;1.00;;
7575;SDS011;3829;50.798;4.358;2022-12-29T03:35:01;2.57;;;0.80;;
7575;SDS011;3829;50.798;4.358;2022-12-29T03:37:29;2.43;;;1.00;;
7575;SDS011;3829;50.798;4.358;2022-12-29T03:40:01;2.70;;;1.07;;
7575;SDS011;3829;50.798;4.358;2022-12-29T03:42:29;6.30;;;1.30;;
7575;SDS011;3829;50.798;4.358;2022-12-29T03:44:57;8.17;;;1.30;;
7575;SDS011;3829;50.798;4.358;2022-12-29T03:47:23;7.33;;;1.70;;
7575;SDS011;3829;50.798;4.358;2022-12-29T03:49:49;9.23;;;1.50;;
7575;SDS011;3829;50.798;4.358;2022-12-29T03:52:16;4.13;;;1.23;;
7575;SDS011;3829;50.798;4.358;2022-12-29T03:54:42;4.13;;;1.60;;
7575;SDS011;3829;50.798;4.358;2022-12-29T03:57:08;6.33;;;1.73;;
7575;SDS011;3829;50.798;4.358;2022-12-29T03:59:34;7.77;;;1.60;;
7575;SDS011;3829;50.798;4.358;2022-12-29T04:01:59;4.20;;;1.53;;
7575;SDS011;3829;50.798;4.358;2022-12-29T04:04:25;6.47;;;1.50;;
7575;SDS011;3829;50.798;4.358;2022-12-29T04:06:51;9.67;;;1.60;;
7575;SDS011;3829;50.798;4.358;2022-12-29T04:09:16;8.30;;;1.50;;
7575;SDS011;3829;50.798;4.358;2022-12-29T04:11:42;4.40;;;1.00;;
7575;SDS011;3829;50.798;4.358;2022-12-29T04:14:07;6.20;;;1.20;;
7575;SDS011;3829;50.798;4.358;2022-12-29T04:16:33;6.03;;;1.50;;
7575;SDS011;3829;50.798;4.358;2022-12-29T04:19:00;5.00;;;1.30;;
7575;SDS011;3829;50.798;4.358;2022-12-29T04:21:26;5.23;;;1.40;;
7575;SDS011;3829;50.798;4.358;2022-12-29T04:23:52;2.03;;;0.93;;
7575;SDS011;3829;50.798;4.358;2022-12-29T04:26:18;8.67;;;1.43;;
7575;SDS011;3829;50.798;4.358;2022-12-29T04:28:43;6.43;;;1.70;;
7575;SDS011;3829;50.798;4.358;2022-12-29T04:31:09;7.90;;;1.30;;
7575;SDS011;3829;50.798;4.358;2022-12-29T04:33:35;6.67;;;1.50;;
7575;SDS011;3829;50.798;4.358;2022-12-29T04:36:00;7.13;;;1.50;;
7575;SDS011;3829;50.798;4.358;2022-12-29T04:38:26;8.70;;;1.57;;
7575;SDS011;3829;50.798;4.358;2022-12-29T04:40:52;6.50;;;1.50;;
7575;SDS011;3829;50.798;4.358;2022-12-29T04:43:18;5.40;;;1.53;;
7575;SDS011;3829;50.798;4.358;2022-12-29T04:45:44;7.00;;;1.20;;
7575;SDS011;3829;50.798;4.358;2022-12-29T04:48:11;5.47;;;1.50;;
7575;SDS011;3829;50.798;4.358;2022-12-29T04:50:37;5.53;;;1.73;;
7575;SDS011;3829;50.798;4.358;2022-12-29T04:53:03;9.60;;;1.63;;
7575;SDS011;3829;50.798;4.358;2022-12-29T04:55:28;10.23;;;1.73;;
7575;SDS011;3829;50.798;4.358;2022-12-29T04:57:54;6.77;;;1.40;;
7575;SDS011;3829;50.798;4.358;2022-12-29T05:00:20;5.30;;;1.27;;
7575;SDS011;3829;50.798;4.358;2022-12-29T05:02:46;6.60;;;1.37;;
7575;SDS011;3829;50.798;4.358;2022-12-29T05:05:11;4.93;;;1.57;;
7575;SDS011;3829;50.798;4.358;2022-12-29T05:07:37;6.13;;;1.40;;
7575;SDS011;3829;50.798;4.358;2022-12-29T05:10:03;5.77;;;1.57;;
7575;SDS011;3829;50.798;4.358;2022-12-29T05:12:34;5.00;;;1.20;;
7575;SDS011;3829;50.798;4.358;2022-12-29T05:15:00;6.57;;;1.23;;
7575;SDS011;3829;50.798;4.358;2022-12-29T05:17:27;4.03;;;1.57;;
7575;SDS011;3829;50.798;4.358;2022-12-29T05:19:53;6.83;;;1.33;;
7575;SDS011;3829;50.798;4.358;2022-12-29T05:22:19;4.43;;;1.40;;
7575;SDS011;3829;50.798;4.358;2022-12-29T05:24:45;7.33;;;1.77;;
7575;SDS011;3829;50.798;4.358;2022-12-29T05:27:11;6.53;;;1.43;;
7575;SDS011;3829;50.798;4.358;2022-12-29T05:29:36;4.27;;;1.77;;
7575;SDS011;3829;50.798;4.358;2022-12-29T05:32:02;10.33;;;1.93;;
7575;SDS011;3829;50.798;4.358;2022-12-29T05:34:27;8.57;;;1.50;;
7575;SDS011;3829;50.798;4.358;2022-12-29T05:36:53;7.83;;;1.73;;
7575;SDS011;3829;50.798;4.358;2022-12-29T05:39:19;8.67;;;1.57;;
7575;SDS011;3829;50.798;4.358;2022-12-29T05:41:45;9.30;;;1.97;;
7575;SDS011;3829;50.798;4.358;2022-12-29T05:44:10;11.90;;;1.70;;
7575;SDS011;3829;50.798;4.358;2022-12-29T05:46:36;6.37;;;1.87;;
7575;SDS011;3829;50.798;4.358;2022-12-29T05:49:02;11.50;;;1.80;;
7575;SDS011;3829;50.798;4.358;2022-12-29T05:51:28;8.63;;;1.97;;
7575;SDS011;3829;50.798;4.358;2022-12-29T05:53:53;16.57;;;3.43;;
7575;SDS011;3829;50.798;4.358;2022-12-29T05:56:19;6.33;;;1.87;;
7575;SDS011;3829;50.798;4.358;2022-12-29T05:58:44;7.70;;;1.87;;
7575;SDS011;3829;50.798;4.358;2022-12-29T06:01:10;8.50;;;1.57;;
7575;SDS011;3829;50.798;4.358;2022-12-29T06:03:36;6.23;;;1.57;;
7575;SDS011;3829;50.798;4.358;2022-12-29T06:06:01;5.60;;;1.60;;
7575;SDS011;3829;50.798;4.358;2022-12-29T06:08:27;10.67;;;1.50;;
7575;SDS011;3829;50.798;4.358;2022-12-29T06:10:52;11.80;;;1.87;;
7575;SDS011;3829;50.798;4.358;2022-12-29T06:13:18;12.07;;;1.60;;
7575;SDS011;3829;50.798;4.358;2022-12-29T06:15:44;9.20;;;2.00;;
7575;SDS011;3829;50.798;4.358;2022-12-29T06:18:09;9.77;;;1.63;;
7575;SDS011;3829;50.798;4.358;2022-12-29T06:20:35;10.93;;;1.73;;
7575;SDS011;3829;50.798;4.358;2022-12-29T06:23:00;9.80;;;1.60;;
7575;SDS011;3829;50.798;4.358;2022-12-29T06:25:26;8.63;;;1.87;;
7575;SDS011;3829;50.798;4.358;2022-12-29T06:27:51;6.67;;;2.00;;
7575;SDS011;3829;50.798;4.358;2022-12-29T06:30:17;16.47;;;2.00;;
7575;SDS011;3829;50.798;4.358;2022-12-29T06:32:43;11.63;;;2.00;;
7575;SDS011;3829;50.798;4.358;2022-12-29T06:35:09;8.83;;;1.57;;
7575;SDS011;3829;50.798;4.358;2022-12-29T06:37:35;11.00;;;1.60;;
7575;SDS011;3829;50.798;4.358;2022-12-29T06:40:00;13.53;;;2.10;;
7575;SDS011;3829;50.798;4.358;2022-12-29T06:42:27;8.67;;;2.00;;
7575;SDS011;3829;50.798;4.358;2022-12-29T06:44:52;5.97;;;1.63;;
7575;SDS011;3829;50.798;4.358;2022-12-29T06:47:18;6.10;;;1.70;;
7575;SDS011;3829;50.798;4.358;2022-12-29T06:49:43;6.63;;;1.53;;
7575;SDS011;3829;50.798;4.358;2022-12-29T06:52:09;5.87;;;1.27;;
7575;SDS011;3829;50.798;4.358;2022-12-29T06:54:35;6.47;;;1.70;;
7575;SDS011;3829;50.798;4.358;2022-12-29T06:57:01;10.27;;;2.20;;
7575;SDS011;3829;50.798;4.358;2022-12-29T06:59:26;11.23;;;1.80;;
7575;SDS011;3829;50.798;4.358;2022-12-29T07:01:52;7.10;;;1.70;;
7575;SDS011;3829;50.798;4.358;2022-12-29T07:04:17;8.20;;;2.00;;
7575;SDS011;3829;50.798;4.358;2022-12-29T07:06:43;7.50;;;1.63;;
7575;SDS011;3829;50.798;4.358;2022-12-29T07:09:09;7.77;;;1.77;;
7575;SDS011;3829;50.798;4.358;2022-12-29T07:11:35;11.47;;;2.87;;
7575;SDS011;3829;50.798;4.358;2022-12-29T07:14:01;9.20;;;1.60;;
7575;SDS011;3829;50.798;4.358;2022-12-29T07:16:27;13.20;;;2.73;;
7575;SDS011;3829;50.798;4.358;2022-12-29T07:18:54;8.97;;;1.93;;
7575;SDS011;3829;50.798;4.358;2022-12-29T07:21:20;10.77;;;3.00;;
7575;SDS011;3829;50.798;4.358;2022-12-29T07:23:46;10.57;;;2.53;;
7575;SDS011;3829;50.798;4.358;2022-12-29T07:26:13;8.23;;;1.73;;
7575;SDS011;3829;50.798;4.358;2022-12-29T07:28:39;5.23;;;1.77;;
7575;SDS011;3829;50.798;4.358;2022-12-29T07:31:07;7.87;;;2.30;;
7575;SDS011;3829;50.798;4.358;2022-12-29T07:33:45;9.50;;;2.20;;
7575;SDS011;3829;50.798;4.358;2022-12-29T07:36:13;6.50;;;1.90;;
7575;SDS011;3829;50.798;4.358;2022-12-29T07:38:40;13.67;;;2.20;;
7575;SDS011;3829;50.798;4.358;2022-12-29T07:41:06;11.40;;;1.87;;
7575;SDS011;3829;50.798;4.358;2022-12-29T07:43:32;9.73;;;2.07;;
7575;SDS011;3829;50.798;4.358;2022-12-29T07:45:58;10.30;;;2.00;;
7575;SDS011;3829;50.798;4.358;2022-12-29T07:48:23;9.03;;;1.80;;
7575;SDS011;3829;50.798;4.358;2022-12-29T07:50:49;7.80;;;1.83;;
7575;SDS011;3829;50.798;4.358;2022-12-29T07:53:15;12.27;;;2.10;;
7575;SDS011;3829;50.798;4.358;2022-12-29T07:55:41;11.47;;;1.53;;
7575;SDS011;3829;50.798;4.358;2022-12-29T07:58:07;7.70;;;2.00;;
7575;SDS011;3829;50.798;4.358;2022-12-29T08:00:33;8.67;;;3.67;;
7575;SDS011;3829;50.798;4.358;2022-12-29T08:02:58;9.47;;;2.20;;
7575;SDS011;3829;50.798;4.358;2022-12-29T08:05:24;6.43;;;1.63;;
7575;SDS011;3829;50.798;4.358;2022-12-29T08:07:50;7.67;;;1.70;;
7575;SDS011;3829;50.798;4.358;2022-12-29T08:10:15;4.13;;;1.20;;
7575;SDS011;3829;50.798;4.358;2022-12-29T08:12:41;11.07;;;2.80;;
7575;SDS011;3829;50.798;4.358;2022-12-29T08:15:08;20.27;;;2.30;;
7575;SDS011;3829;50.798;4.358;2022-12-29T08:17:35;10.27;;;2.27;;
7575;SDS011;3829;50.798;4.358;2022-12-29T08:20:01;10.10;;;2.00;;
7575;SDS011;3829;50.798;4.358;2022-12-29T08:22:27;11.20;;;2.07;;
7575;SDS011;3829;50.798;4.358;2022-12-29T08:24:53;12.07;;;2.07;;
7575;SDS011;3829;50.798;4.358;2022-12-29T08:27:18;12.93;;;2.00;;
7575;SDS011;3829;50.798;4.358;2022-12-29T08:29:44;8.33;;;1.70;;
7575;SDS011;3829;50.798;4.358;2022-12-29T08:32:10;12.80;;;1.77;;
7575;SDS011;3829;50.798;4.358;2022-12-29T08:34:36;8.83;;;2.23;;
7575;SDS011;3829;50.798;4.358;2022-12-29T08:37:02;8.57;;;2.33;;
7575;SDS011;3829;50.798;4.358;2022-12-29T08:39:28;5.67;;;1.87;;
7575;SDS011;3829;50.798;4.358;2022-12-29T08:41:53;6.00;;;1.87;;
7575;SDS011;3829;50.798;4.358;2022-12-29T08:44:19;11.57;;;2.10;;
7575;SDS011;3829;50.798;4.358;2022-12-29T08:46:45;12.23;;;1.80;;
7575;SDS011;3829;50.798;4.358;2022-12-29T08:49:10;11.93;;;2.73;;
7575;SDS011;3829;50.798;4.358;2022-12-29T08:51:36;4.93;;;1.43;;
7575;SDS011;3829;50.798;4.358;2022-12-29T08:54:02;14.03;;;2.17;;
7575;SDS011;3829;50.798;4.358;2022-12-29T08:56:27;10.60;;;1.80;;
7575;SDS011;3829;50.798;4.358;2022-12-29T08:58:53;13.07;;;2.30;;
7575;SDS011;3829;50.798;4.358;2022-12-29T09:01:19;14.03;;;2.33;;
7575;SDS011;3829;50.798;4.358;2022-12-29T09:03:45;8.47;;;1.80;;
7575;SDS011;3829;50.798;4.358;2022-12-29T09:06:11;7.47;;;2.63;;
7575;SDS011;3829;50.798;4.358;2022-12-29T09:08:37;9.30;;;1.80;;
7575;SDS011;3829;50.798;4.358;2022-12-29T09:11:09;11.87;;;2.97;;
7575;SDS011;3829;50.798;4.358;2022-12-29T09:13:37;11.43;;;2.93;;
7575;SDS011;3829;50.798;4.358;2022-12-29T09:16:03;11.67;;;3.17;;
7575;SDS011;3829;50.798;4.358;2022-12-29T09:18:29;6.47;;;1.77;;
7575;SDS011;3829;50.798;4.358;2022-12-29T09:20:59;9.53;;;2.00;;
7575;SDS011;3829;50.798;4.358;2022-12-29T09:23:27;11.13;;;2.70;;
7575;SDS011;3829;50.798;4.358;2022-12-29T09:25:53;12.50;;;2.23;;
7575;SDS011;3829;50.798;4.358;2022-12-29T09:28:19;12.80;;;2.20;;
7575;SDS011;3829;50.798;4.358;2022-12-29T09:30:46;12.80;;;2.70;;
7575;SDS011;3829;50.798;4.358;2022-12-29T09:33:11;13.47;;;2.17;;
7575;SDS011;3829;50.798;4.358;2022-12-29T09:35:37;9.20;;;2.23;;
7575;SDS011;3829;50.798;4.358;2022-12-29T09:38:06;10.00;;;2.03;;
7575;SDS011;3829;50.798;4.358;2022-12-29T09:40:32;14.03;;;2.83;;
7575;SDS011;3829;50.798;4.358;2022-12-29T09:45:42;8.13;;;2.37;;
7575;SDS011;3829;50.798;4.358;2022-12-29T09:48:13;11.27;;;2.53;;
7575;SDS011;3829;50.798;4.358;2022-12-29T09:50:44;14.83;;;2.33;;
7575;SDS011;3829;50.798;4.358;2022-12-29T09:53:20;9.27;;;1.90;;
7575;SDS011;3829;50.798;4.358;2022-12-29T09:55:52;12.13;;;2.30;;
7575;SDS011;3829;50.798;4.358;2022-12-29T09:58:26;8.70;;;2.07;;
7575;SDS011;3829;50.798;4.358;2022-12-29T10:03:49;6.53;;;2.33;;
7575;SDS011;3829;50.798;4.358;2022-12-29T10:08:47;12.03;;;3.07;;
7575;SDS011;3829;50.798;4.358;2022-12-29T10:19:32;8.40;;;2.33;;
7575;SDS011;3829;50.798;4.358;2022-12-29T10:22:08;10.93;;;2.50;;
7575;SDS011;3829;50.798;4.358;2022-12-29T10:24:47;8.80;;;2.17;;
7575;SDS011;3829;50.798;4.358;2022-12-29T10:27:15;15.53;;;2.30;;
7575;SDS011;3829;50.798;4.358;2022-12-29T10:29:43;12.17;;;2.60;;
7575;SDS011;3829;50.798;4.358;2022-12-29T10:34:54;12.87;;;2.87;;
7575;SDS011;3829;50.798;4.358;2022-12-29T10:37:41;10.23;;;2.20;;
7575;SDS011;3829;50.798;4.358;2022-12-29T10:40:18;8.07;;;1.87;;
7575;SDS011;3829;50.798;4.358;2022-12-29T10:42:50;14.00;;;3.53;;
7575;SDS011;3829;50.798;4.358;2022-12-29T10:45:18;9.87;;;2.03;;
7575;SDS011;3829;50.798;4.358;2022-12-29T10:47:53;9.40;;;2.73;;
7575;SDS011;3829;50.798;4.358;2022-12-29T10:50:24;11.83;;;2.27;;
7575;SDS011;3829;50.798;4.358;2022-12-29T10:52:51;12.00;;;2.67;;
7575;SDS011;3829;50.798;4.358;2022-12-29T10:55:20;13.80;;;2.70;;
7575;SDS011;3829;50.798;4.358;2022-12-29T10:57:50;15.40;;;3.40;;
7575;SDS011;3829;50.798;4.358;2022-12-29T11:00:17;12.73;;;2.30;;
7575;SDS011;3829;50.798;4.358;2022-12-29T11:08:24;14.00;;;2.30;;
7575;SDS011;3829;50.798;4.358;2022-12-29T11:10:57;11.43;;;2.40;;
7575;SDS011;3829;50.798;4.358;2022-12-29T11:13:26;10.23;;;2.50;;
7575;SDS011;3829;50.798;4.358;2022-12-29T11:15:54;11.77;;;2.77;;
7575;SDS011;3829;50.798;4.358;2022-12-29T11:18:23;7.37;;;1.97;;
7575;SDS011;3829;50.798;4.358;2022-12-29T11:21:02;11.87;;;2.77;;
7575;SDS011;3829;50.798;4.358;2022-12-29T11:23:36;13.50;;;3.10;;
7575;SDS011;3829;50.798;4.358;2022-12-29T11:26:24;10.17;;;2.77;;
7575;SDS011;3829;50.798;4.358;2022-12-29T11:31:43;12.37;;;2.90;;
7575;SDS011;3829;50.798;4.358;2022-12-29T11:34:33;7.83;;;1.93;;
7575;SDS011;3829;50.798;4.358;2022-12-29T11:37:10;14.77;;;2.60;;
7575;SDS011;3829;50.798;4.358;2022-12-29T11:39:37;9.90;;;2.77;;
7575;SDS011;3829;50.798;4.358;2022-12-29T11:42:19;12.30;;;2.33;;
7575;SDS011;3829;50.798;4.358;2022-12-29T11:44:48;18.47;;;2.40;;
7575;SDS011;3829;50.798;4.358;2022-12-29T11:47:49;10.60;;;2.47;;
7575;SDS011;3829;50.798;4.358;2022-12-29T11:50:16;11.60;;;2.40;;
7575;SDS011;3829;50.798;4.358;2022-12-29T11:52:45;17.60;;;2.50;;
7575;SDS011;3829;50.798;4.358;2022-12-29T11:55:20;12.97;;;2.80;;
7575;SDS011;3829;50.798;4.358;2022-12-29T11:57:49;13.93;;;2.60;;
7575;SDS011;3829;50.798;4.358;2022-12-29T12:00:20;13.60;;;2.93;;
7575;SDS011;3829;50.798;4.358;2022-12-29T12:05:50;13.47;;;2.70;;
7575;SDS011;3829;50.798;4.358;2022-12-29T12:14:14;12.43;;;2.27;;
7575;SDS011;3829;50.798;4.358;2022-12-29T12:16:54;12.80;;;2.37;;
7575;SDS011;3829;50.798;4.358;2022-12-29T12:22:31;13.07;;;2.50;;
7575;SDS011;3829;50.798;4.358;2022-12-29T12:35:32;7.97;;;2.07;;
7575;SDS011;3829;50.798;4.358;2022-12-29T12:50:01;13.73;;;2.97;;
7575;SDS011;3829;50.798;4.358;2022-12-29T12:58:18;9.53;;;1.73;;
7575;SDS011;3829;50.798;4.358;2022-12-29T13:01:01;11.50;;;2.70;;
7575;SDS011;3829;50.798;4.358;2022-12-29T13:12:11;9.90;;;2.10;;
7575;SDS011;3829;50.798;4.358;2022-12-29T13:19:54;11.57;;;2.50;;
7575;SDS011;3829;50.798;4.358;2022-12-29T13:25:22;8.27;;;2.23;;
7575;SDS011;3829;50.798;4.358;2022-12-29T13:28:16;10.97;;;2.63;;
7575;SDS011;3829;50.798;4.358;2022-12-29T13:34:00;15.07;;;2.67;;
7575;SDS011;3829;50.798;4.358;2022-12-29T13:36:34;7.87;;;2.33;;
7575;SDS011;3829;50.798;4.358;2022-12-29T13:41:34;10.50;;;2.00;;
7575;SDS011;3829;50.798;4.358;2022-12-29T13:44:04;13.40;;;2.30;;
7575;SDS011;3829;50.798;4.358;2022-12-29T13:46:39;13.07;;;2.00;;
7575;SDS011;3829;50.798;4.358;2022-12-29T13:49:20;14.03;;;2.20;;
7575;SDS011;3829;50.798;4.358;2022-12-29T13:51:57;11.90;;;2.27;;
7575;SDS011;3829;50.798;4.358;2022-12-29T13:54:43;9.47;;;2.37;;
7575;SDS011;3829;50.798;4.358;2022-12-29T14:00:27;8.53;;;2.20;;
7575;SDS011;3829;50.798;4.358;2022-12-29T14:03:04;13.80;;;2.63;;
7575;SDS011;3829;50.798;4.358;2022-12-29T14:05:40;11.90;;;2.30;;
7575;SDS011;3829;50.798;4.358;2022-12-29T14:08:14;16.23;;;2.63;;
7575;SDS011;3829;50.798;4.358;2022-12-29T14:10:49;12.87;;;2.40;;
7575;SDS011;3829;50.798;4.358;2022-12-29T14:13:23;15.27;;;2.57;;
7575;SDS011;3829;50.798;4.358;2022-12-29T14:15:51;19.73;;;2.50;;
7575;SDS011;3829;50.798;4.358;2022-12-29T14:18:25;11.13;;;2.33;;
7575;SDS011;3829;50.798;4.358;2022-12-29T14:23:37;12.90;;;2.43;;
7575;SDS011;3829;50.798;4.358;2022-12-29T14:28:38;11.33;;;2.83;;
7575;SDS011;3829;50.798;4.358;2022-12-29T14:31:32;15.90;;;2.73;;
7575;SDS011;3829;50.798;4.358;2022-12-29T14:36:35;13.13;;;2.47;;
7575;SDS011;3829;50.798;4.358;2022-12-29T14:39:03;12.07;;;3.03;;
7575;SDS011;3829;50.798;4.358;2022-12-29T14:41:35;12.30;;;2.93;;
7575;SDS011;3829;50.798;4.358;2022-12-29T14:46:43;16.93;;;2.53;;
7575;SDS011;3829;50.798;4.358;2022-12-29T14:49:15;10.23;;;2.07;;
7575;SDS011;3829;50.798;4.358;2022-12-29T14:51:44;11.80;;;2.60;;
7575;SDS011;3829;50.798;4.358;2022-12-29T14:57:02;12.37;;;2.40;;
7575;SDS011;3829;50.798;4.358;2022-12-29T14:59:31;9.77;;;2.63;;
7575;SDS011;3829;50.798;4.358;2022-12-29T15:01:59;16.83;;;3.13;;
7575;SDS011;3829;50.798;4.358;2022-12-29T15:04:30;12.40;;;2.93;;
7575;SDS011;3829;50.798;4.358;2022-12-29T15:06:58;11.40;;;3.00;;
7575;SDS011;3829;50.798;4.358;2022-12-29T15:09:29;10.43;;;1.73;;
7575;SDS011;3829;50.798;4.358;2022-12-29T15:14:55;5.97;;;1.40;;
7575;SDS011;3829;50.798;4.358;2022-12-29T15:19:59;7.90;;;1.73;;
7575;SDS011;3829;50.798;4.358;2022-12-29T15:22:26;4.83;;;1.50;;
7575;SDS011;3829;50.798;4.358;2022-12-29T15:24:53;8.20;;;1.90;;
7575;SDS011;3829;50.798;4.358;2022-12-29T15:27:21;5.23;;;1.27;;
7575;SDS011;3829;50.798;4.358;2022-12-29T15:29:59;4.67;;;1.60;;
7575;SDS011;3829;50.798;4.358;2022-12-29T15:32:27;8.83;;;1.57;;
7575;SDS011;3829;50.798;4.358;2022-12-29T15:35:13;7.83;;;1.97;;
7575;SDS011;3829;50.798;4.358;2022-12-29T15:37:46;9.27;;;1.37;;
7575;SDS011;3829;50.798;4.358;2022-12-29T15:40:21;7.43;;;1.90;;
7575;SDS011;3829;50.798;4.358;2022-12-29T15:45:36;8.93;;;2.23;;
7575;SDS011;3829;50.798;4.358;2022-12-29T15:48:03;7.97;;;2.20;;
7575;SDS011;3829;50.798;4.358;2022-12-29T15:50:33;8.30;;;2.40;;
7575;SDS011;3829;50.798;4.358;2022-12-29T15:53:00;7.87;;;2.53;;
7575;SDS011;3829;50.798;4.358;2022-12-29T15:55:31;10.60;;;2.80;;
7575;SDS011;3829;50.798;4.358;2022-12-29T15:58:00;8.77;;;2.50;;
7575;SDS011;3829;50.798;4.358;2022-12-29T16:00:32;11.27;;;2.47;;
7575;SDS011;3829;50.798;4.358;2022-12-29T16:03:02;14.77;;;2.77;;
7575;SDS011;3829;50.798;4.358;2022-12-29T16:05:36;14.23;;;3.37;;
7575;SDS011;3829;50.798;4.358;2022-12-29T16:08:15;12.90;;;3.40;;
7575;SDS011;3829;50.798;4.358;2022-12-29T16:10:45;15.77;;;3.37;;
7575;SDS011;3829;50.798;4.358;2022-12-29T16:15:45;21.07;;;3.07;;
7575;SDS011;3829;50.798;4.358;2022-12-29T16:18:20;16.50;;;3.27;;
7575;SDS011;3829;50.798;4.358;2022-12-29T16:20:51;20.03;;;4.43;;
7575;SDS011;3829;50.798;4.358;2022-12-29T16:23:19;19.13;;;3.87;;
7575;SDS011;3829;50.798;4.358;2022-12-29T16:25:48;16.70;;;3.10;;
7575;SDS011;3829;50.798;4.358;2022-12-29T16:28:16;14.43;;;3.30;;
7575;SDS011;3829;50.798;4.358;2022-12-29T16:30:44;15.27;;;3.57;;
7575;SDS011;3829;50.798;4.358;2022-12-29T16:33:28;18.07;;;4.40;;
7575;SDS011;3829;50.798;4.358;2022-12-29T16:36:20;14.73;;;4.17;;
7575;SDS011;3829;50.798;4.358;2022-12-29T16:38:46;17.77;;;4.30;;
7575;SDS011;3829;50.798;4.358;2022-12-29T16:41:12;25.00;;;4.03;;
7575;SDS011;3829;50.798;4.358;2022-12-29T16:49:23;13.43;;;3.90;;
7575;SDS011;3829;50.798;4.358;2022-12-29T16:51:50;18.27;;;4.30;;
7575;SDS011;3829;50.798;4.358;2022-12-29T16:54:20;18.23;;;3.90;;
7575;SDS011;3829;50.798;4.358;2022-12-29T16:56:48;18.73;;;3.93;;
7575;SDS011;3829;50.798;4.358;2022-12-29T16:59:58;23.03;;;3.77;;
7575;SDS011;3829;50.798;4.358;2022-12-29T17:02:10;15.33;;;3.30;;
7575;SDS011;3829;50.798;4.358;2022-12-29T17:04:40;21.53;;;4.20;;
7575;SDS011;3829;50.798;4.358;2022-12-29T17:07:16;9.97;;;3.20;;
7575;SDS011;3829;50.798;4.358;2022-12-29T17:09:43;20.23;;;3.63;;
7575;SDS011;3829;50.798;4.358;2022-12-29T17:12:09;17.03;;;4.07;;
7575;SDS011;3829;50.798;4.358;2022-12-29T17:14:48;15.23;;;3.77;;
7575;SDS011;3829;50.798;4.358;2022-12-29T17:17:23;14.40;;;3.13;;
7575;SDS011;3829;50.798;4.358;2022-12-29T17:22:43;17.97;;;3.00;;
7575;SDS011;3829;50.798;4.358;2022-12-29T17:25:17;14.00;;;3.37;;
7575;SDS011;3829;50.798;4.358;2022-12-29T17:27:46;16.67;;;3.17;;
7575;SDS011;3829;50.798;4.358;2022-12-29T17:30:38;13.10;;;2.80;;
7575;SDS011;3829;50.798;4.358;2022-12-29T17:33:05;15.07;;;2.50;;
7575;SDS011;3829;50.798;4.358;2022-12-29T17:35:34;14.27;;;3.00;;
7575;SDS011;3829;50.798;4.358;2022-12-29T17:38:00;13.50;;;2.83;;
7575;SDS011;3829;50.798;4.358;2022-12-29T17:40:27;16.70;;;3.03;;
7575;SDS011;3829;50.798;4.358;2022-12-29T17:42:57;10.77;;;2.80;;
7575;SDS011;3829;50.798;4.358;2022-12-29T17:45:27;15.07;;;3.00;;
7575;SDS011;3829;50.798;4.358;2022-12-29T17:47:54;16.43;;;3.30;;
7575;SDS011;3829;50.798;4.358;2022-12-29T17:50:23;9.40;;;2.40;;